createdAt,value
2023-03-07T00:00:21.577Z,47.83
2023-03-07T00:01:53.208Z,47.93
2023-03-07T00:03:24.810Z,48.23
2023-03-07T00:04:57.024Z,48.09
2023-03-07T00:06:28.887Z,48.12
2023-03-07T00:08:00.479Z,48.04
2023-03-07T00:09:32.184Z,47.88
2023-03-07T00:11:04.291Z,47.97
2023-03-07T00:12:35.861Z,47.74
2023-03-07T00:14:09.340Z,47.86
2023-03-07T00:15:40.950Z,47.85
2023-03-07T00:17:12.425Z,47.71
2023-03-07T00:18:44.162Z,47.93
2023-03-07T00:20:15.801Z,47.79
2023-03-07T00:21:47.405Z,47.88
2023-03-07T00:23:18.953Z,48.09
2023-03-07T00:24:50.993Z,47.98
2023-03-07T00:26:23.006Z,47.77
2023-03-07T00:27:54.692Z,48.13
2023-03-07T00:29:26.671Z,48.22
2023-03-07T00:31:05.319Z,48.25
2023-03-07T00:32:36.987Z,47.93
2023-03-07T00:34:08.554Z,48.02
2023-03-07T00:35:40.496Z,47.66
2023-03-07T00:37:12.364Z,47.69
2023-03-07T00:38:44.826Z,47.72
2023-03-07T00:40:16.805Z,48.03
2023-03-07T00:41:48.402Z,47.86
2023-03-07T00:43:20.445Z,47.94
2023-03-07T00:44:52.358Z,47.89
2023-03-07T00:46:24.512Z,47.88
2023-03-07T00:47:57.471Z,47.87
2023-03-07T00:49:29.155Z,47.95
2023-03-07T00:51:01.224Z,47.89
2023-03-07T00:52:33.495Z,47.90
2023-03-07T00:54:05.039Z,47.99
2023-03-07T00:55:36.639Z,47.97
2023-03-07T00:57:08.260Z,47.98
2023-03-07T00:58:39.996Z,48.36
2023-03-07T01:00:12.021Z,48.03
2023-03-07T01:01:43.868Z,48.22
2023-03-07T01:03:16.242Z,47.84
2023-03-07T01:04:48.571Z,47.88
2023-03-07T01:06:21.486Z,48.63
2023-03-07T01:07:53.168Z,48.39
2023-03-07T01:09:24.904Z,48.69
2023-03-07T01:11:00.092Z,48.45
2023-03-07T01:12:32.152Z,48.92
2023-03-07T01:14:04.703Z,48.71
2023-03-07T01:15:36.596Z,48.78
2023-03-07T01:17:08.121Z,48.74
2023-03-07T01:18:39.580Z,48.92
2023-03-07T01:20:11.376Z,48.84
2023-03-07T01:21:43.260Z,49.13
2023-03-07T01:23:15.612Z,49.08
2023-03-07T01:24:47.629Z,49.17
2023-03-07T01:26:20.241Z,48.64
2023-03-07T01:27:53.051Z,48.96
2023-03-07T01:29:24.958Z,49.15
2023-03-07T01:30:57.348Z,48.90
2023-03-07T01:32:28.846Z,48.91
2023-03-07T01:34:13.121Z,48.83
2023-03-07T01:35:45.366Z,48.78
2023-03-07T01:37:17.012Z,48.82
2023-03-07T01:38:49.330Z,48.69
2023-03-07T01:40:21.455Z,49.00
2023-03-07T01:41:53.491Z,49.01
2023-03-07T01:43:34.592Z,49.20
2023-03-07T01:45:29.182Z,49.12
2023-03-07T01:47:01.703Z,49.24
2023-03-07T01:48:33.743Z,49.21
2023-03-07T01:50:09.536Z,49.18
2023-03-07T01:51:42.367Z,49.18
2023-03-07T01:53:15.980Z,49.12
2023-03-07T01:54:51.509Z,49.36
2023-03-07T01:56:23.395Z,49.25
2023-03-07T01:57:54.981Z,49.37
2023-03-07T01:59:29.151Z,49.39
2023-03-07T02:01:00.821Z,49.15
2023-03-07T02:02:33.113Z,49.15
2023-03-07T02:04:18.944Z,49.16
2023-03-07T02:05:53.902Z,48.96
2023-03-07T02:07:25.986Z,49.08
2023-03-07T02:08:57.494Z,49.13
2023-03-07T02:10:29.257Z,49.21
2023-03-07T02:12:02.121Z,49.12
2023-03-07T02:13:34.321Z,49.16
2023-03-07T02:15:06.554Z,49.12
2023-03-07T02:16:40.945Z,49.30
2023-03-07T02:18:14.120Z,49.15
2023-03-07T02:19:54.298Z,49.31
2023-03-07T02:21:26.266Z,49.36
2023-03-07T02:22:58.564Z,49.18
2023-03-07T02:24:34.844Z,49.25
2023-03-07T02:26:07.970Z,49.01
2023-03-07T02:27:40.125Z,48.99
2023-03-07T02:29:12.052Z,49.14
2023-03-07T02:30:55.456Z,49.31
2023-03-07T02:32:27.350Z,49.25
2023-03-07T02:33:59.942Z,48.77
2023-03-07T02:35:31.434Z,48.99
2023-03-07T02:37:07.976Z,49.15
2023-03-07T02:38:40.631Z,49.27
2023-03-07T02:40:12.849Z,49.17
2023-03-07T02:41:44.440Z,49.50
2023-03-07T02:43:16.325Z,49.04
2023-03-07T02:44:48.285Z,49.21
2023-03-07T02:46:20.871Z,49.37
2023-03-07T02:47:52.542Z,49.15
2023-03-07T02:49:24.595Z,49.26
2023-03-07T02:50:56.336Z,49.26
2023-03-07T02:52:28.803Z,49.28
2023-03-07T02:54:00.388Z,49.34
2023-03-07T02:55:32.412Z,49.54
2023-03-07T02:57:04.983Z,49.29
2023-03-07T02:58:36.849Z,49.51
2023-03-07T03:00:12.553Z,48.94
2023-03-07T03:01:44.375Z,49.49
2023-03-07T03:03:16.267Z,49.46
2023-03-07T03:04:48.407Z,49.77
2023-03-07T03:06:20.338Z,49.72
2023-03-07T03:07:52.380Z,49.54
2023-03-07T03:09:24.732Z,49.69
2023-03-07T03:10:58.329Z,49.61
2023-03-07T03:12:30.305Z,49.36
2023-03-07T03:14:02.202Z,49.41
2023-03-07T03:15:33.852Z,49.46
2023-03-07T03:17:05.819Z,49.35
2023-03-07T03:18:38.906Z,49.41
2023-03-07T03:20:12.190Z,49.44
2023-03-07T03:21:44.265Z,49.46
2023-03-07T03:23:15.879Z,49.60
2023-03-07T03:24:48.499Z,49.52
2023-03-07T03:26:20.166Z,49.66
2023-03-07T03:27:52.060Z,49.60
2023-03-07T03:29:24.394Z,49.61
2023-03-07T03:30:59.894Z,49.80
2023-03-07T03:32:31.811Z,49.82
2023-03-07T03:34:05.359Z,49.69
2023-03-07T03:35:40.162Z,49.87
2023-03-07T03:37:12.225Z,49.89
2023-03-07T03:38:44.431Z,49.83
2023-03-07T03:40:17.760Z,49.67
2023-03-07T03:41:49.340Z,49.78
2023-03-07T03:43:21.320Z,49.82
2023-03-07T03:44:54.872Z,49.71
2023-03-07T03:46:27.067Z,49.50
2023-03-07T03:47:58.669Z,49.64
2023-03-07T03:49:30.551Z,49.73
2023-03-07T03:51:02.672Z,49.62
2023-03-07T03:52:35.502Z,49.73
2023-03-07T03:54:07.186Z,49.38
2023-03-07T03:55:38.834Z,49.21
2023-03-07T03:57:11.080Z,48.98
2023-03-07T03:58:42.790Z,49.38
2023-03-07T04:00:15.723Z,49.39
2023-03-07T04:01:48.019Z,49.86
2023-03-07T04:03:19.668Z,49.50
2023-03-07T04:04:51.374Z,49.97
2023-03-07T04:06:27.134Z,49.61
2023-03-07T04:07:59.019Z,49.60
2023-03-07T04:09:31.846Z,49.81
2023-03-07T04:11:05.035Z,49.82
2023-03-07T04:12:36.774Z,49.74
2023-03-07T04:14:09.149Z,49.86
2023-03-07T04:15:40.958Z,49.56
2023-03-07T04:17:12.656Z,49.70
2023-03-07T04:18:44.897Z,49.90
2023-03-07T04:20:18.442Z,50.04
2023-03-07T04:21:50.000Z,50.16
2023-03-07T04:23:22.324Z,49.68
2023-03-07T04:24:54.215Z,49.95
2023-03-07T04:26:26.112Z,49.63
2023-03-07T04:27:57.704Z,49.71
2023-03-07T04:29:32.099Z,49.74
2023-03-07T04:31:03.886Z,49.72
2023-03-07T04:32:35.606Z,49.61
2023-03-07T04:34:07.484Z,49.79
2023-03-07T04:35:39.699Z,49.91
2023-03-07T04:37:12.137Z,49.93
2023-03-07T04:38:44.131Z,49.93
2023-03-07T04:40:15.957Z,50.12
2023-03-07T04:41:47.732Z,49.23
2023-03-07T04:43:19.311Z,49.65
2023-03-07T04:44:50.973Z,49.70
2023-03-07T04:46:42.980Z,49.86
2023-03-07T05:10:55.729Z,50.33
2023-03-07T05:12:27.685Z,50.37
2023-03-07T05:18:37.751Z,50.89
2023-03-07T05:20:10.991Z,50.87
2023-03-07T05:21:44.424Z,50.50
2023-03-07T05:25:14.278Z,50.50
2023-03-07T05:26:46.397Z,50.97
2023-03-07T05:28:19.458Z,50.85
2023-03-07T05:29:51.683Z,50.84
2023-03-07T05:31:23.675Z,50.66
2023-03-07T05:32:55.470Z,50.32
2023-03-07T05:34:27.133Z,50.62
2023-03-07T05:36:01.933Z,50.69
2023-03-07T05:37:33.634Z,50.55
2023-03-07T05:39:05.450Z,50.46
2023-03-07T05:40:37.035Z,50.47
2023-03-07T05:42:08.727Z,50.13
2023-03-07T05:43:40.269Z,51.14
2023-03-07T05:45:12.240Z,50.60
2023-03-07T05:46:43.935Z,50.39
2023-03-07T05:48:15.905Z,50.29
2023-03-07T05:49:47.734Z,50.34
2023-03-07T05:51:19.384Z,50.54
2023-03-07T05:52:53.110Z,50.43
2023-03-07T05:54:24.852Z,50.30
2023-03-07T05:55:56.293Z,50.10
2023-03-07T05:57:27.859Z,50.49
2023-03-07T05:58:59.431Z,50.23
2023-03-07T06:00:30.984Z,50.22
2023-03-07T06:02:02.704Z,50.09
2023-03-07T06:03:34.383Z,50.40
2023-03-07T06:05:06.427Z,49.85
2023-03-07T06:06:37.939Z,49.66
2023-03-07T06:08:09.781Z,49.87
2023-03-07T06:09:41.577Z,49.97
2023-03-07T06:11:13.342Z,50.47
2023-03-07T06:12:45.035Z,49.78
2023-03-07T06:14:16.615Z,49.69
2023-03-07T06:15:49.164Z,50.72
2023-03-07T06:17:20.762Z,50.37
2023-03-07T06:18:52.316Z,50.30
2023-03-07T06:20:23.952Z,50.08
2023-03-07T06:21:55.488Z,49.88
2023-03-07T06:23:27.528Z,50.01
2023-03-07T06:24:59.107Z,50.10
2023-03-07T06:26:30.722Z,50.20
2023-03-07T06:28:02.276Z,50.67
2023-03-07T06:29:33.852Z,50.63
2023-03-07T06:31:09.397Z,50.89
2023-03-07T06:32:41.098Z,50.57
2023-03-07T06:34:13.140Z,50.51
2023-03-07T06:35:44.853Z,49.86
2023-03-07T06:37:17.154Z,50.34
2023-03-07T06:38:48.706Z,50.48
2023-03-07T06:40:20.609Z,49.98
2023-03-07T06:41:52.607Z,49.77
2023-03-07T06:43:24.157Z,49.61
2023-03-07T06:44:55.858Z,50.28
2023-03-07T06:46:28.099Z,49.57
2023-03-07T06:47:59.679Z,49.98
2023-03-07T06:49:31.250Z,49.22
2023-03-07T06:51:09.229Z,49.31
2023-03-07T06:52:41.637Z,49.31
2023-03-07T06:54:13.159Z,49.73
2023-03-07T06:55:48.045Z,49.91
2023-03-07T06:57:19.662Z,49.51
2023-03-07T06:58:51.284Z,49.53
2023-03-07T07:00:23.238Z,49.42
2023-03-07T07:01:55.455Z,49.32
2023-03-07T07:03:27.386Z,49.40
2023-03-07T07:05:02.695Z,49.39
2023-03-07T07:06:34.456Z,49.50
2023-03-07T07:08:09.443Z,49.41
2023-03-07T07:09:41.095Z,49.32
2023-03-07T07:11:13.358Z,49.34
2023-03-07T07:12:45.130Z,49.41
2023-03-07T07:14:17.106Z,49.30
2023-03-07T07:15:52.999Z,49.05
2023-03-07T07:17:49.962Z,49.03
2023-03-07T07:19:22.200Z,48.75
2023-03-07T07:20:56.874Z,48.88
2023-03-07T07:22:28.584Z,48.99
2023-03-07T07:24:00.812Z,48.69
2023-03-07T07:25:33.111Z,48.81
2023-03-07T07:27:05.182Z,48.80
2023-03-07T07:28:37.595Z,48.73
2023-03-07T07:30:09.658Z,48.74
2023-03-07T07:31:44.394Z,48.43
2023-03-07T07:33:17.611Z,48.44
2023-03-07T07:34:49.450Z,48.36
2023-03-07T07:36:22.831Z,48.29
2023-03-07T07:37:54.551Z,48.17
2023-03-07T07:39:26.214Z,48.19
2023-03-07T07:40:58.192Z,48.12
2023-03-07T07:42:32.207Z,48.07
2023-03-07T07:44:04.225Z,47.66
2023-03-07T07:45:37.287Z,47.63
2023-03-07T07:47:09.169Z,47.74
2023-03-07T07:48:40.795Z,47.54
2023-03-07T07:50:14.273Z,47.44
2023-03-07T07:51:45.976Z,47.37
2023-03-07T07:53:17.970Z,47.34
2023-03-07T07:54:49.688Z,47.09
2023-03-07T07:56:21.298Z,47.25
2023-03-07T07:57:52.886Z,46.92
2023-03-07T07:59:24.458Z,46.86
2023-03-07T08:00:56.349Z,46.81
2023-03-07T08:02:28.984Z,46.66
2023-03-07T08:04:00.765Z,46.72
2023-03-07T08:05:32.652Z,46.60
2023-03-07T08:07:04.343Z,46.53
2023-03-07T08:08:36.146Z,46.42
2023-03-07T08:10:08.486Z,46.25
2023-03-07T08:11:40.062Z,46.51
2023-03-07T08:13:18.304Z,46.48
2023-03-07T08:14:49.918Z,45.99
2023-03-07T08:16:22.680Z,45.59
2023-03-07T08:17:54.516Z,45.91
2023-03-07T08:19:26.146Z,45.88
2023-03-07T08:20:59.526Z,45.85
2023-03-07T08:22:31.273Z,45.77
2023-03-07T08:24:04.464Z,45.35
2023-03-07T08:25:36.673Z,45.57
2023-03-07T08:27:11.470Z,45.51
2023-03-07T08:28:46.141Z,45.09
2023-03-07T08:30:18.886Z,45.37
2023-03-07T08:31:52.069Z,45.05
2023-03-07T08:33:23.738Z,45.03
2023-03-07T08:34:55.327Z,44.89
2023-03-07T08:36:27.135Z,44.62
2023-03-07T08:37:59.998Z,44.64
2023-03-07T08:39:31.867Z,44.68
2023-03-07T08:41:04.726Z,44.31
2023-03-07T08:42:36.809Z,44.47
2023-03-07T08:44:11.401Z,44.31
2023-03-07T08:45:43.008Z,44.52
2023-03-07T08:47:14.558Z,44.07
2023-03-07T08:48:46.129Z,44.35
2023-03-07T08:50:17.848Z,44.39
2023-03-07T08:51:49.574Z,44.16
2023-03-07T08:53:21.931Z,44.04
2023-03-07T08:54:53.620Z,43.98
2023-03-07T08:56:25.770Z,43.66
2023-03-07T08:57:57.598Z,43.92
2023-03-07T08:59:29.250Z,43.59
2023-03-07T09:01:00.923Z,43.57
2023-03-07T09:02:33.109Z,43.75
2023-03-07T09:04:05.375Z,43.72
2023-03-07T09:05:37.795Z,43.51
2023-03-07T09:07:09.842Z,43.55
2023-03-07T09:08:41.689Z,43.29
2023-03-07T09:10:14.467Z,43.54
2023-03-07T09:11:46.354Z,43.41
2023-03-07T09:13:18.657Z,43.25
2023-03-07T09:15:09.476Z,43.11
2023-03-07T09:16:41.713Z,43.28
2023-03-07T09:18:14.048Z,42.98
2023-03-07T09:19:45.785Z,42.99
2023-03-07T09:21:18.156Z,43.29
2023-03-07T09:22:51.745Z,42.97
2023-03-07T09:24:23.483Z,42.88
2023-03-07T09:25:55.251Z,43.03
2023-03-07T09:27:26.826Z,42.92
2023-03-07T09:28:58.352Z,42.83
2023-03-07T09:30:29.875Z,42.64
2023-03-07T09:32:03.145Z,42.98
2023-03-07T09:33:35.246Z,42.67
2023-03-07T09:35:07.389Z,42.58
2023-03-07T09:36:39.618Z,42.36
2023-03-07T09:38:11.597Z,42.32
2023-03-07T09:39:44.120Z,42.19
2023-03-07T09:41:19.026Z,42.39
2023-03-07T09:42:58.205Z,42.10
2023-03-07T09:44:48.752Z,42.01
2023-03-07T09:46:25.984Z,42.07
2023-03-07T09:48:18.074Z,42.19
2023-03-07T09:49:50.295Z,42.16
2023-03-07T09:51:25.795Z,41.83
2023-03-07T09:52:59.493Z,42.17
2023-03-07T09:54:38.808Z,42.05
2023-03-07T09:56:46.206Z,42.00
2023-03-07T09:58:19.297Z,41.86
2023-03-07T09:59:53.817Z,41.60
2023-03-07T10:01:26.485Z,41.32
2023-03-07T10:03:08.154Z,41.35
2023-03-07T10:04:51.979Z,41.17
2023-03-07T10:06:29.218Z,41.39
2023-03-07T10:08:01.198Z,41.09
2023-03-07T10:09:33.414Z,40.98
2023-03-07T10:11:18.683Z,41.24
2023-03-07T10:12:50.451Z,40.63
2023-03-07T10:14:41.243Z,40.72
2023-03-07T10:16:16.428Z,41.01
2023-03-07T10:18:06.149Z,40.79
2023-03-07T10:19:49.630Z,40.54
2023-03-07T10:21:27.209Z,40.76
2023-03-07T10:23:29.235Z,40.64
2023-03-07T10:25:15.133Z,40.98
2023-03-07T10:26:50.089Z,40.73
2023-03-07T10:28:25.982Z,40.70
2023-03-07T10:29:58.763Z,40.93
2023-03-07T10:31:31.036Z,40.71
2023-03-07T10:33:02.726Z,40.49
2023-03-07T10:34:34.479Z,40.81
2023-03-07T10:36:22.208Z,40.72
2023-03-07T10:37:55.573Z,40.89
2023-03-07T10:39:27.657Z,40.40
2023-03-07T10:41:25.810Z,40.84
2023-03-07T10:42:57.660Z,40.66
2023-03-07T10:44:31.520Z,40.56
2023-03-07T10:46:23.595Z,40.74
2023-03-07T10:47:59.112Z,40.71
2023-03-07T10:49:38.025Z,40.63
2023-03-07T10:51:18.780Z,40.24
2023-03-07T10:52:53.775Z,40.14
2023-03-07T10:54:30.101Z,40.04
2023-03-07T10:56:17.837Z,39.95
2023-03-07T10:57:49.463Z,39.79
2023-03-07T10:59:24.717Z,39.77
2023-03-07T11:01:00.481Z,39.87
2023-03-07T11:02:41.262Z,39.81
2023-03-07T11:04:22.457Z,39.78
2023-03-07T11:05:54.233Z,39.54
2023-03-07T11:07:32.475Z,39.72
2023-03-07T11:09:13.530Z,39.47
2023-03-07T11:10:45.200Z,39.38
2023-03-07T11:12:20.287Z,39.46
2023-03-07T11:14:12.768Z,39.24
2023-03-07T11:15:46.112Z,39.12
2023-03-07T11:17:21.363Z,39.04
2023-03-07T11:18:52.942Z,39.03
2023-03-07T11:20:25.792Z,38.70
2023-03-07T11:21:57.707Z,38.73
2023-03-07T11:23:32.301Z,38.48
2023-03-07T11:25:09.617Z,38.63
2023-03-07T11:26:42.162Z,38.47
2023-03-07T11:28:31.049Z,38.39
2023-03-07T11:30:06.614Z,38.32
2023-03-07T11:31:44.444Z,38.21
2023-03-07T11:33:18.320Z,38.09
2023-03-07T11:34:53.873Z,38.04
2023-03-07T11:36:28.450Z,38.02
2023-03-07T11:38:02.681Z,37.82
2023-03-07T11:39:41.286Z,37.76
2023-03-07T11:41:32.728Z,37.63
2023-03-07T11:43:19.680Z,37.54
2023-03-07T11:44:51.719Z,37.40
2023-03-07T11:46:26.923Z,37.35
2023-03-07T11:47:58.544Z,37.15
2023-03-07T11:49:30.925Z,37.38
2023-03-07T11:51:04.793Z,37.30
2023-03-07T11:52:49.954Z,37.11
2023-03-07T11:54:24.911Z,37.03
2023-03-07T11:56:15.832Z,36.85
2023-03-07T11:57:53.575Z,36.89
2023-03-07T11:59:29.461Z,37.01
2023-03-07T12:01:06.969Z,36.94
2023-03-07T12:02:49.644Z,36.75
2023-03-07T12:04:26.277Z,36.62
2023-03-07T12:05:57.930Z,36.82
2023-03-07T12:07:30.993Z,36.62
2023-03-07T12:09:13.660Z,36.33
2023-03-07T12:11:01.737Z,36.30
2023-03-07T12:12:51.940Z,36.31
2023-03-07T12:14:27.012Z,36.18
2023-03-07T12:16:15.089Z,36.22
2023-03-07T12:17:50.187Z,36.15
2023-03-07T12:19:28.426Z,36.31
2023-03-07T12:21:13.600Z,36.44
2023-03-07T12:23:04.814Z,36.12
2023-03-07T12:24:38.318Z,36.02
2023-03-07T12:26:19.245Z,36.30
2023-03-07T12:28:03.425Z,35.97
2023-03-07T12:29:52.095Z,36.42
2023-03-07T12:31:27.974Z,36.08
2023-03-07T12:32:59.874Z,35.68
2023-03-07T12:34:42.550Z,35.65
2023-03-07T12:36:19.819Z,35.70
2023-03-07T12:37:59.422Z,35.92
2023-03-07T12:39:34.975Z,35.60
2023-03-07T12:41:44.958Z,35.70
2023-03-07T12:43:21.150Z,35.99
2023-03-07T12:45:08.187Z,35.96
2023-03-07T12:46:46.029Z,35.80
2023-03-07T12:48:26.558Z,35.99
2023-03-07T12:50:17.788Z,35.92
2023-03-07T12:51:49.977Z,36.02
2023-03-07T12:53:30.341Z,35.99
2023-03-07T12:55:05.224Z,35.57
2023-03-07T12:56:55.817Z,35.84
2023-03-07T12:58:46.134Z,35.87
2023-03-07T13:00:18.396Z,36.08
2023-03-07T13:01:54.671Z,35.56
2023-03-07T13:03:46.808Z,35.92
2023-03-07T13:05:19.665Z,35.58
2023-03-07T13:06:51.393Z,35.62
2023-03-07T13:08:23.853Z,35.38
2023-03-07T13:09:56.465Z,35.45
2023-03-07T13:11:28.944Z,35.69
2023-03-07T13:13:08.596Z,35.56
2023-03-07T13:14:44.583Z,35.51
2023-03-07T13:16:32.263Z,35.59
2023-03-07T13:18:04.630Z,35.89
2023-03-07T13:19:39.526Z,35.86
2023-03-07T13:21:12.827Z,35.74
2023-03-07T13:22:44.983Z,35.69
2023-03-07T13:24:34.231Z,35.69
2023-03-07T13:26:06.863Z,35.62
2023-03-07T13:27:41.924Z,35.41
2023-03-07T13:29:14.351Z,35.55
2023-03-07T13:31:06.018Z,35.32
2023-03-07T13:32:54.581Z,35.34
2023-03-07T13:34:44.282Z,35.40
2023-03-07T13:36:32.273Z,35.39
2023-03-07T13:38:22.555Z,35.51
2023-03-07T13:40:02.881Z,35.26
2023-03-07T13:41:47.622Z,35.34
2023-03-07T13:43:19.656Z,35.72
2023-03-07T13:44:51.374Z,35.85
2023-03-07T13:46:54.663Z,35.40
2023-03-07T13:48:30.409Z,35.84
2023-03-07T13:50:02.468Z,35.79
2023-03-07T13:51:34.170Z,35.75
2023-03-07T13:53:13.653Z,35.63
2023-03-07T13:54:45.897Z,35.75
2023-03-07T13:56:17.788Z,35.32
2023-03-07T13:57:50.357Z,35.45
2023-03-07T13:59:24.764Z,35.53
2023-03-07T14:00:58.683Z,35.61
2023-03-07T14:02:30.854Z,35.72
2023-03-07T14:04:02.668Z,35.70
2023-03-07T14:05:34.704Z,35.86
2023-03-07T14:07:15.412Z,35.71
2023-03-07T14:08:48.091Z,35.63
2023-03-07T14:10:26.686Z,35.35
2023-03-07T14:11:58.325Z,35.75
2023-03-07T14:13:42.129Z,35.43
2023-03-07T14:15:30.017Z,35.25
2023-03-07T14:17:24.083Z,35.15
2023-03-07T14:19:04.662Z,35.22
2023-03-07T14:20:41.339Z,35.62
2023-03-07T14:22:20.484Z,35.36
2023-03-07T14:23:54.787Z,35.30
2023-03-07T14:25:27.136Z,35.65
2023-03-07T14:26:59.761Z,35.77
2023-03-07T14:28:31.282Z,35.63
2023-03-07T14:30:03.436Z,35.34
2023-03-07T14:31:38.790Z,35.20
2023-03-07T14:33:15.134Z,35.19
2023-03-07T14:34:47.916Z,35.35
2023-03-07T14:36:23.343Z,35.06
2023-03-07T14:37:54.910Z,35.06
2023-03-07T14:39:30.735Z,34.96
2023-03-07T14:41:05.355Z,34.78
2023-03-07T14:42:52.914Z,34.73
2023-03-07T14:44:35.027Z,35.05
2023-03-07T14:46:11.181Z,34.87
2023-03-07T14:47:43.128Z,34.78
2023-03-07T14:49:15.409Z,35.52
2023-03-07T14:50:47.789Z,35.06
2023-03-07T14:52:30.504Z,34.94
2023-03-07T14:54:07.408Z,34.88
2023-03-07T14:55:39.713Z,35.19
2023-03-07T14:57:14.252Z,34.85
2023-03-07T14:58:47.280Z,35.29
2023-03-07T15:00:23.314Z,35.16
2023-03-07T15:01:55.802Z,35.33
2023-03-07T15:03:27.645Z,35.21
2023-03-07T15:05:12.835Z,35.27
2023-03-07T15:06:45.302Z,35.04
2023-03-07T15:08:18.707Z,35.24
2023-03-07T15:09:50.660Z,35.29
2023-03-07T15:11:34.510Z,35.04
2023-03-07T15:13:07.393Z,35.43
2023-03-07T15:14:42.248Z,35.02
2023-03-07T15:16:18.951Z,35.33
2023-03-07T15:17:50.881Z,35.23
2023-03-07T15:19:22.744Z,35.21
2023-03-07T15:20:55.340Z,35.19
2023-03-07T15:22:30.001Z,35.25
2023-03-07T15:24:05.501Z,35.36
2023-03-07T15:25:39.013Z,35.04
2023-03-07T15:27:12.381Z,34.72
2023-03-07T15:28:43.993Z,35.28
2023-03-07T15:30:25.487Z,35.02
2023-03-07T15:32:04.227Z,35.12
2023-03-07T15:33:36.213Z,34.90
2023-03-07T15:35:08.045Z,34.96
2023-03-07T15:36:39.911Z,35.31
2023-03-07T15:38:15.876Z,35.34
2023-03-07T15:40:04.422Z,35.04
2023-03-07T15:41:36.390Z,35.42
2023-03-07T15:43:17.701Z,35.57
2023-03-07T15:44:55.345Z,35.55
2023-03-07T15:46:28.318Z,35.29
2023-03-07T15:48:09.013Z,35.55
2023-03-07T15:49:43.763Z,35.31
2023-03-07T15:51:16.027Z,35.61
2023-03-07T15:52:50.761Z,35.45
2023-03-07T15:54:39.515Z,35.46
2023-03-07T15:56:36.303Z,35.56
2023-03-07T15:58:12.378Z,35.76
2023-03-07T15:59:50.954Z,35.83
2023-03-07T16:01:26.269Z,35.83
2023-03-07T16:03:16.423Z,35.81
2023-03-07T16:04:49.148Z,35.67
2023-03-07T16:06:40.013Z,36.21
2023-03-07T16:08:13.207Z,35.60
2023-03-07T16:09:46.060Z,35.86
2023-03-07T16:11:17.863Z,35.93
2023-03-07T16:12:49.596Z,35.93
2023-03-07T16:14:39.402Z,35.87
2023-03-07T16:16:14.035Z,35.80
2023-03-07T16:17:45.926Z,36.29
2023-03-07T16:19:17.571Z,36.44
2023-03-07T16:20:49.367Z,36.17
2023-03-07T16:22:21.395Z,36.14
2023-03-07T16:23:52.978Z,36.17
2023-03-07T16:25:24.604Z,35.96
2023-03-07T16:26:56.188Z,36.00
2023-03-07T16:28:27.905Z,36.03
2023-03-07T16:29:59.637Z,36.12
2023-03-07T16:31:31.655Z,36.32
2023-03-07T16:33:03.570Z,36.17
2023-03-07T16:34:35.310Z,36.45
2023-03-07T16:36:07.102Z,36.36
2023-03-07T16:37:38.704Z,36.32
2023-03-07T16:39:10.765Z,36.42
2023-03-07T16:40:43.577Z,36.28
2023-03-07T16:42:20.250Z,36.59
2023-03-07T16:43:55.188Z,36.37
2023-03-07T16:45:27.659Z,36.38
2023-03-07T16:47:03.826Z,36.50
2023-03-07T16:48:36.308Z,36.48
2023-03-07T16:50:17.252Z,36.57
2023-03-07T16:52:04.603Z,36.46
2023-03-07T16:53:37.654Z,36.67
2023-03-07T16:55:11.415Z,36.63
2023-03-07T16:56:44.920Z,36.60
2023-03-07T16:58:20.943Z,36.63
2023-03-07T16:59:52.549Z,36.50
2023-03-07T17:01:24.178Z,36.51
2023-03-07T17:02:57.339Z,36.81
2023-03-07T17:04:28.985Z,36.84
2023-03-07T17:06:01.365Z,36.73
2023-03-07T17:07:32.989Z,37.08
2023-03-07T17:09:05.179Z,36.73
2023-03-07T17:10:37.635Z,36.84
2023-03-07T17:12:09.825Z,36.81
2023-03-07T17:13:41.787Z,37.33
2023-03-07T17:15:20.088Z,37.13
2023-03-07T17:16:51.665Z,37.04
2023-03-07T17:18:23.427Z,37.07
2023-03-07T17:19:55.200Z,37.40
2023-03-07T17:21:27.186Z,37.43
2023-03-07T17:22:59.179Z,37.22
2023-03-07T17:24:31.319Z,37.45
2023-03-07T17:26:02.960Z,37.52
2023-03-07T17:27:35.172Z,37.36
2023-03-07T17:29:08.508Z,37.22
2023-03-07T17:30:43.211Z,37.22
2023-03-07T17:32:15.167Z,37.14
2023-03-07T17:33:46.853Z,37.68
2023-03-07T17:35:18.590Z,37.52
2023-03-07T17:36:50.227Z,37.84
2023-03-07T17:38:21.921Z,38.10
2023-03-07T17:39:53.560Z,37.97
2023-03-07T17:41:25.369Z,37.88
2023-03-07T17:42:59.531Z,38.00
2023-03-07T17:44:31.290Z,37.64
2023-03-07T17:46:07.565Z,38.13
2023-03-07T17:47:39.370Z,37.52
2023-03-07T17:49:11.316Z,37.85
2023-03-07T17:50:43.298Z,37.84
2023-03-07T17:52:15.028Z,37.97
2023-03-07T17:53:46.698Z,37.68
2023-03-07T17:55:18.468Z,38.02
2023-03-07T17:56:50.198Z,37.94
2023-03-07T17:58:21.824Z,38.12
2023-03-07T17:59:53.837Z,38.33
2023-03-07T18:01:25.580Z,38.07
2023-03-07T18:02:57.500Z,37.96
2023-03-07T18:04:31.523Z,38.73
2023-03-07T18:06:03.348Z,38.07
2023-03-07T18:07:35.700Z,38.57
2023-03-07T18:09:07.560Z,38.58
2023-03-07T18:10:39.240Z,38.58
2023-03-07T18:12:11.248Z,38.51
2023-03-07T18:13:43.200Z,38.50
2023-03-07T18:15:15.630Z,38.90
2023-03-07T18:16:47.213Z,38.71
2023-03-07T18:18:19.203Z,38.68
2023-03-07T18:19:51.474Z,38.82
2023-03-07T18:21:23.623Z,38.80
2023-03-07T18:22:55.354Z,38.99
2023-03-07T18:24:28.172Z,38.39
2023-03-07T18:26:00.358Z,38.53
2023-03-07T18:27:31.990Z,38.22
2023-03-07T18:29:06.833Z,38.40
2023-03-07T18:30:38.518Z,39.03
2023-03-07T18:32:10.349Z,38.35
2023-03-07T18:33:42.071Z,38.55
2023-03-07T18:35:15.586Z,38.86
2023-03-07T18:36:51.752Z,38.93
2023-03-07T18:38:23.677Z,38.76
2023-03-07T18:39:55.356Z,38.96
2023-03-07T18:41:27.122Z,38.63
2023-03-07T18:43:00.598Z,39.24
2023-03-07T18:44:32.409Z,39.39
2023-03-07T18:46:07.221Z,38.98
2023-03-07T18:47:38.851Z,39.41
2023-03-07T18:49:10.579Z,39.90
2023-03-07T18:50:42.902Z,38.62
2023-03-07T18:52:14.418Z,38.87
2023-03-07T18:53:46.232Z,39.43
2023-03-07T18:55:18.344Z,38.90
2023-03-07T18:56:50.235Z,39.88
2023-03-07T18:58:22.013Z,39.84
2023-03-07T18:59:53.902Z,39.41
2023-03-07T19:01:28.980Z,39.86
2023-03-07T19:03:00.808Z,40.25
2023-03-07T19:04:32.401Z,39.92
2023-03-07T19:06:04.214Z,39.59
2023-03-07T19:07:36.027Z,39.89
2023-03-07T19:09:08.072Z,39.00
2023-03-07T19:10:40.047Z,40.04
2023-03-07T19:12:11.830Z,40.02
2023-03-07T19:13:43.500Z,40.15
2023-03-07T19:15:15.981Z,40.35
2023-03-07T19:16:47.611Z,39.95
2023-03-07T19:18:19.900Z,39.79
2023-03-07T19:19:54.793Z,39.98
2023-03-07T19:21:26.926Z,39.50
2023-03-07T19:22:58.467Z,39.78
2023-03-07T19:24:30.125Z,39.28
2023-03-07T19:26:03.081Z,39.26
2023-03-07T19:27:34.747Z,39.46
2023-03-07T19:29:06.533Z,39.31
2023-03-07T19:30:38.453Z,39.94
2023-03-07T19:32:10.765Z,39.58
2023-03-07T19:33:42.568Z,39.66
2023-03-07T19:35:14.290Z,40.45
2023-03-07T19:36:45.869Z,39.71
2023-03-07T19:38:17.471Z,40.43
2023-03-07T19:39:53.618Z,39.85
2023-03-07T19:41:25.858Z,39.75
2023-03-07T19:42:57.495Z,39.90
2023-03-07T19:44:29.076Z,40.42
2023-03-07T19:46:01.917Z,40.14
2023-03-07T19:47:33.530Z,40.03
2023-03-07T19:49:05.270Z,40.12
2023-03-07T19:50:40.239Z,40.46
2023-03-07T19:52:12.252Z,40.36
2023-03-07T19:53:44.199Z,40.22
2023-03-07T19:55:18.930Z,40.59
2023-03-07T19:56:50.707Z,40.65
2023-03-07T19:58:22.292Z,40.71
2023-03-07T19:59:53.995Z,40.62
2023-03-07T20:01:25.930Z,40.38
2023-03-07T20:02:57.645Z,40.32
2023-03-07T20:04:29.340Z,40.34
2023-03-07T20:06:01.529Z,40.75
2023-03-07T20:07:33.145Z,40.66
2023-03-07T20:09:04.699Z,40.65
2023-03-07T20:10:36.927Z,40.87
2023-03-07T20:12:10.376Z,40.79
2023-03-07T20:13:42.220Z,40.90
2023-03-07T20:15:14.543Z,40.96
2023-03-07T20:16:46.202Z,41.53
2023-03-07T20:18:17.819Z,40.68
2023-03-07T20:19:50.176Z,40.83
2023-03-07T20:21:22.241Z,40.95
2023-03-07T20:22:57.285Z,41.42
2023-03-07T20:24:30.054Z,41.07
2023-03-07T20:26:05.125Z,40.73
2023-03-07T20:27:36.759Z,40.92
2023-03-07T20:29:08.765Z,41.50
2023-03-07T20:30:40.936Z,41.24
2023-03-07T20:32:12.626Z,41.75
2023-03-07T20:33:47.436Z,41.73
2023-03-07T20:35:20.164Z,41.38
2023-03-07T20:36:51.781Z,41.58
2023-03-07T20:38:23.336Z,41.39
2023-03-07T20:39:55.810Z,41.84
2023-03-07T20:41:31.760Z,42.03
2023-03-07T20:43:05.469Z,41.54
2023-03-07T20:44:36.983Z,41.40